sensor_id;sensor_type;location;lat;lon;timestamp;P1;durP1;ratioP1;P2;durP2;ratioP2
9264;SDS011;4669;49.594;10.958;2023-06-22T04:30:19;14.57;;;11.48;;
9264;SDS011;4669;49.594;10.958;2023-06-22T04:35:22;11.57;;;10.40;;
9264;SDS011;4669;49.594;10.958;2023-06-22T04:45:29;11.77;;;10.68;;
9264;SDS011;4669;49.594;10.958;2023-06-22T04:50:31;13.32;;;11.55;;
9264;SDS011;4669;49.594;10.958;2023-06-22T04:55:33;11.48;;;10.27;;
9264;SDS011;4669;49.594;10.958;2023-06-22T05:00:39;11.02;;;9.90;;
9264;SDS011;4669;49.594;10.958;2023-06-22T05:05:40;11.98;;;10.55;;
9264;SDS011;4669;49.594;10.958;2023-06-22T05:10:42;10.40;;;9.30;;
9264;SDS011;4669;49.594;10.958;2023-06-22T05:15:45;9.75;;;8.70;;
9264;SDS011;4669;49.594;10.958;2023-06-22T05:20:47;9.25;;;8.40;;
9264;SDS011;4669;49.594;10.958;2023-06-22T05:25:50;9.50;;;8.32;;
9264;SDS011;4669;49.594;10.958;2023-06-22T05:30:54;10.82;;;9.00;;
9264;SDS011;4669;49.594;10.958;2023-06-22T05:35:56;9.65;;;8.68;;
9264;SDS011;4669;49.594;10.958;2023-06-22T05:40:58;9.35;;;8.38;;
9264;SDS011;4669;49.594;10.958;2023-06-22T05:46:01;10.48;;;8.88;;
9264;SDS011;4669;49.594;10.958;2023-06-22T05:51:03;9.75;;;8.60;;
9264;SDS011;4669;49.594;10.958;2023-06-22T05:56:05;10.10;;;8.25;;
9264;SDS011;4669;49.594;10.958;2023-06-22T06:01:08;9.90;;;8.07;;
9264;SDS011;4669;49.594;10.958;2023-06-22T06:06:10;10.25;;;8.93;;
9264;SDS011;4669;49.594;10.958;2023-06-22T06:11:12;11.60;;;8.13;;
9264;SDS011;4669;49.594;10.958;2023-06-22T06:16:16;9.32;;;8.15;;
9264;SDS011;4669;49.594;10.958;2023-06-22T06:21:18;8.93;;;7.75;;
9264;SDS011;4669;49.594;10.958;2023-06-22T06:26:19;9.32;;;8.02;;
9264;SDS011;4669;49.594;10.958;2023-06-22T06:31:29;10.57;;;7.22;;
9264;SDS011;4669;49.594;10.958;2023-06-22T06:36:31;9.07;;;8.10;;
9264;SDS011;4669;49.594;10.958;2023-06-22T06:41:32;8.00;;;7.30;;
9264;SDS011;4669;49.594;10.958;2023-06-22T06:46:36;8.52;;;7.57;;
9264;SDS011;4669;49.594;10.958;2023-06-22T06:51:38;7.88;;;6.85;;
9264;SDS011;4669;49.594;10.958;2023-06-22T06:56:39;9.02;;;7.80;;
9264;SDS011;4669;49.594;10.958;2023-06-22T07:01:49;9.98;;;7.22;;
9264;SDS011;4669;49.594;10.958;2023-06-22T07:06:51;7.80;;;7.10;;
9264;SDS011;4669;49.594;10.958;2023-06-22T07:11:53;8.18;;;7.40;;
9264;SDS011;4669;49.594;10.958;2023-06-22T07:16:56;9.48;;;7.05;;
9264;SDS011;4669;49.594;10.958;2023-06-22T07:21:58;8.68;;;7.00;;
9264;SDS011;4669;49.594;10.958;2023-06-22T07:26:59;9.52;;;6.72;;
9264;SDS011;4669;49.594;10.958;2023-06-22T07:32:04;8.82;;;6.82;;
9264;SDS011;4669;49.594;10.958;2023-06-22T07:37:07;8.02;;;6.45;;
9264;SDS011;4669;49.594;10.958;2023-06-22T07:42:08;9.60;;;6.55;;
9264;SDS011;4669;49.594;10.958;2023-06-22T07:47:12;8.25;;;6.28;;
9264;SDS011;4669;49.594;10.958;2023-06-22T07:52:14;6.78;;;5.43;;
9264;SDS011;4669;49.594;10.958;2023-06-22T07:57:15;9.30;;;6.13;;
9264;SDS011;4669;49.594;10.958;2023-06-22T08:02:19;6.55;;;5.85;;
9264;SDS011;4669;49.594;10.958;2023-06-22T08:07:20;11.95;;;6.28;;
9264;SDS011;4669;49.594;10.958;2023-06-22T08:12:22;6.85;;;5.82;;
9264;SDS011;4669;49.594;10.958;2023-06-22T08:17:26;6.97;;;5.95;;
9264;SDS011;4669;49.594;10.958;2023-06-22T08:22:27;9.48;;;6.32;;
9264;SDS011;4669;49.594;10.958;2023-06-22T08:27:30;8.02;;;6.18;;
9264;SDS011;4669;49.594;10.958;2023-06-22T08:32:34;6.03;;;5.30;;
9264;SDS011;4669;49.594;10.958;2023-06-22T08:37:36;8.93;;;5.57;;
9264;SDS011;4669;49.594;10.958;2023-06-22T08:42:40;8.20;;;6.10;;
9264;SDS011;4669;49.594;10.958;2023-06-22T08:47:43;9.60;;;5.78;;
9264;SDS011;4669;49.594;10.958;2023-06-22T08:52:45;7.32;;;5.47;;
9264;SDS011;4669;49.594;10.958;2023-06-22T08:57:48;7.05;;;5.85;;
9264;SDS011;4669;49.594;10.958;2023-06-22T09:02:51;7.60;;;6.00;;
9264;SDS011;4669;49.594;10.958;2023-06-22T09:07:53;6.55;;;5.30;;
9264;SDS011;4669;49.594;10.958;2023-06-22T09:12:56;10.77;;;5.63;;
9264;SDS011;4669;49.594;10.958;2023-06-22T09:18:00;8.23;;;5.38;;
9264;SDS011;4669;49.594;10.958;2023-06-22T09:23:02;7.03;;;5.88;;
9264;SDS011;4669;49.594;10.958;2023-06-22T09:28:04;8.57;;;5.15;;
9264;SDS011;4669;49.594;10.958;2023-06-22T09:33:07;8.13;;;5.25;;
9264;SDS011;4669;49.594;10.958;2023-06-22T09:38:09;9.82;;;6.38;;
9264;SDS011;4669;49.594;10.958;2023-06-22T09:43:11;9.18;;;6.05;;
9264;SDS011;4669;49.594;10.958;2023-06-22T09:48:15;9.80;;;5.80;;
9264;SDS011;4669;49.594;10.958;2023-06-22T09:53:17;7.55;;;5.30;;
9264;SDS011;4669;49.594;10.958;2023-06-22T09:58:18;6.80;;;5.90;;
9264;SDS011;4669;49.594;10.958;2023-06-22T10:03:22;9.02;;;5.65;;
9264;SDS011;4669;49.594;10.958;2023-06-22T10:08:24;12.85;;;6.25;;
9264;SDS011;4669;49.594;10.958;2023-06-22T10:13:26;8.82;;;5.70;;
9264;SDS011;4669;49.594;10.958;2023-06-22T10:18:29;9.82;;;6.03;;
9264;SDS011;4669;49.594;10.958;2023-06-22T10:23:31;12.35;;;5.28;;
9264;SDS011;4669;49.594;10.958;2023-06-22T10:28:32;7.10;;;5.18;;
9264;SDS011;4669;49.594;10.958;2023-06-22T10:33:36;7.72;;;5.88;;
9264;SDS011;4669;49.594;10.958;2023-06-22T10:38:37;10.00;;;5.75;;
9264;SDS011;4669;49.594;10.958;2023-06-22T10:43:39;9.32;;;6.20;;
9264;SDS011;4669;49.594;10.958;2023-06-22T10:48:42;13.13;;;6.20;;
9264;SDS011;4669;49.594;10.958;2023-06-22T10:53:44;13.38;;;5.60;;
9264;SDS011;4669;49.594;10.958;2023-06-22T10:58:46;9.20;;;5.50;;
9264;SDS011;4669;49.594;10.958;2023-06-22T11:03:49;10.60;;;6.10;;
9264;SDS011;4669;49.594;10.958;2023-06-22T11:08:51;7.53;;;5.05;;
9264;SDS011;4669;49.594;10.958;2023-06-22T11:13:53;11.45;;;6.18;;
9264;SDS011;4669;49.594;10.958;2023-06-22T11:18:56;9.35;;;5.75;;
9264;SDS011;4669;49.594;10.958;2023-06-22T11:23:58;14.77;;;5.30;;
9264;SDS011;4669;49.594;10.958;2023-06-22T11:29:00;16.80;;;6.05;;
9264;SDS011;4669;49.594;10.958;2023-06-22T11:34:06;9.63;;;5.38;;
9264;SDS011;4669;49.594;10.958;2023-06-22T11:39:08;11.05;;;5.25;;
9264;SDS011;4669;49.594;10.958;2023-06-22T11:44:11;14.02;;;5.80;;
9264;SDS011;4669;49.594;10.958;2023-06-22T11:49:14;16.40;;;5.60;;
9264;SDS011;4669;49.594;10.958;2023-06-22T11:54:16;10.02;;;5.28;;
9264;SDS011;4669;49.594;10.958;2023-06-22T11:59:17;12.18;;;5.50;;
9264;SDS011;4669;49.594;10.958;2023-06-22T12:04:23;7.47;;;5.10;;
9264;SDS011;4669;49.594;10.958;2023-06-22T12:09:25;9.60;;;5.65;;
9264;SDS011;4669;49.594;10.958;2023-06-22T12:14:27;11.95;;;5.47;;
9264;SDS011;4669;49.594;10.958;2023-06-22T12:19:30;13.73;;;5.32;;
9264;SDS011;4669;49.594;10.958;2023-06-22T12:24:32;10.23;;;5.60;;
9264;SDS011;4669;49.594;10.958;2023-06-22T12:29:34;11.48;;;5.97;;
9264;SDS011;4669;49.594;10.958;2023-06-22T12:34:37;14.80;;;6.55;;
9264;SDS011;4669;49.594;10.958;2023-06-22T12:39:39;8.98;;;6.05;;
9264;SDS011;4669;49.594;10.958;2023-06-22T12:44:42;13.18;;;5.55;;
9264;SDS011;4669;49.594;10.958;2023-06-22T12:49:46;13.52;;;5.57;;
9264;SDS011;4669;49.594;10.958;2023-06-22T12:54:48;13.15;;;6.80;;
9264;SDS011;4669;49.594;10.958;2023-06-22T12:59:49;14.13;;;5.25;;
9264;SDS011;4669;49.594;10.958;2023-06-22T13:04:53;14.52;;;6.07;;
9264;SDS011;4669;49.594;10.958;2023-06-22T13:09:54;15.68;;;6.22;;
9264;SDS011;4669;49.594;10.958;2023-06-22T13:14:56;9.63;;;5.22;;
9264;SDS011;4669;49.594;10.958;2023-06-22T13:20:00;7.80;;;5.53;;
9264;SDS011;4669;49.594;10.958;2023-06-22T13:25:04;14.52;;;5.43;;
9264;SDS011;4669;49.594;10.958;2023-06-22T13:30:07;11.60;;;6.25;;
9264;SDS011;4669;49.594;10.958;2023-06-22T13:35:11;19.42;;;5.88;;
9264;SDS011;4669;49.594;10.958;2023-06-22T13:40:13;14.60;;;6.10;;
9264;SDS011;4669;49.594;10.958;2023-06-22T13:45:15;13.05;;;5.82;;
9264;SDS011;4669;49.594;10.958;2023-06-22T13:50:20;12.38;;;6.35;;
9264;SDS011;4669;49.594;10.958;2023-06-22T13:55:22;12.77;;;4.90;;
9264;SDS011;4669;49.594;10.958;2023-06-22T14:00:24;10.85;;;6.07;;
9264;SDS011;4669;49.594;10.958;2023-06-22T14:05:27;10.80;;;6.65;;
9264;SDS011;4669;49.594;10.958;2023-06-22T14:10:29;13.30;;;5.93;;
9264;SDS011;4669;49.594;10.958;2023-06-22T14:15:30;18.77;;;6.57;;
9264;SDS011;4669;49.594;10.958;2023-06-22T14:20:34;20.55;;;8.43;;
9264;SDS011;4669;49.594;10.958;2023-06-22T14:25:36;11.73;;;6.10;;
9264;SDS011;4669;49.594;10.958;2023-06-22T14:30:37;15.65;;;5.82;;
9264;SDS011;4669;49.594;10.958;2023-06-22T14:35:40;16.38;;;6.30;;
9264;SDS011;4669;49.594;10.958;2023-06-22T14:40:42;14.07;;;5.43;;
9264;SDS011;4669;49.594;10.958;2023-06-22T14:45:44;14.10;;;6.22;;
9264;SDS011;4669;49.594;10.958;2023-06-22T14:50:47;15.27;;;5.78;;
9264;SDS011;4669;49.594;10.958;2023-06-22T14:55:49;14.13;;;5.75;;
9264;SDS011;4669;49.594;10.958;2023-06-22T15:00:51;16.55;;;5.53;;
9264;SDS011;4669;49.594;10.958;2023-06-22T15:05:55;15.55;;;5.55;;
9264;SDS011;4669;49.594;10.958;2023-06-22T15:10:58;16.80;;;6.10;;
9264;SDS011;4669;49.594;10.958;2023-06-22T15:16:01;11.00;;;5.72;;
9264;SDS011;4669;49.594;10.958;2023-06-22T15:21:05;17.92;;;6.00;;
9264;SDS011;4669;49.594;10.958;2023-06-22T15:26:07;11.65;;;5.03;;
9264;SDS011;4669;49.594;10.958;2023-06-22T15:31:09;14.25;;;6.00;;
9264;SDS011;4669;49.594;10.958;2023-06-22T15:36:12;22.55;;;6.40;;
9264;SDS011;4669;49.594;10.958;2023-06-22T15:41:14;14.32;;;6.32;;
9264;SDS011;4669;49.594;10.958;2023-06-22T15:46:16;14.25;;;6.55;;
9264;SDS011;4669;49.594;10.958;2023-06-22T15:51:20;11.98;;;5.47;;
9264;SDS011;4669;49.594;10.958;2023-06-22T15:56:21;13.25;;;6.32;;
9264;SDS011;4669;49.594;10.958;2023-06-22T16:01:25;13.13;;;5.80;;
9264;SDS011;4669;49.594;10.958;2023-06-22T16:06:28;23.15;;;6.43;;
9264;SDS011;4669;49.594;10.958;2023-06-22T16:11:30;15.27;;;6.10;;
9264;SDS011;4669;49.594;10.958;2023-06-22T16:16:32;13.85;;;6.05;;
9264;SDS011;4669;49.594;10.958;2023-06-22T16:21:35;19.88;;;6.00;;
9264;SDS011;4669;49.594;10.958;2023-06-22T16:26:38;22.00;;;6.25;;
9264;SDS011;4669;49.594;10.958;2023-06-22T16:31:40;14.48;;;6.40;;
9264;SDS011;4669;49.594;10.958;2023-06-22T16:36:43;17.67;;;5.70;;
9264;SDS011;4669;49.594;10.958;2023-06-22T16:41:45;15.60;;;5.60;;
9264;SDS011;4669;49.594;10.958;2023-06-22T16:46:47;14.73;;;5.40;;
9264;SDS011;4669;49.594;10.958;2023-06-22T16:51:50;13.88;;;5.68;;
9264;SDS011;4669;49.594;10.958;2023-06-22T16:56:52;15.73;;;6.60;;
9264;SDS011;4669;49.594;10.958;2023-06-22T17:01:55;21.10;;;5.97;;
9264;SDS011;4669;49.594;10.958;2023-06-22T17:07:01;17.55;;;5.43;;
9264;SDS011;4669;49.594;10.958;2023-06-22T17:12:09;16.73;;;5.38;;
9264;SDS011;4669;49.594;10.958;2023-06-22T17:17:11;16.33;;;5.88;;
9264;SDS011;4669;49.594;10.958;2023-06-22T17:22:17;16.45;;;6.40;;
9264;SDS011;4669;49.594;10.958;2023-06-22T17:27:28;12.82;;;6.05;;
9264;SDS011;4669;49.594;10.958;2023-06-22T17:32:30;16.70;;;5.88;;
9264;SDS011;4669;49.594;10.958;2023-06-22T17:37:38;19.00;;;6.18;;
9264;SDS011;4669;49.594;10.958;2023-06-22T17:42:49;12.68;;;5.80;;
9264;SDS011;4669;49.594;10.958;2023-06-22T17:47:52;18.85;;;6.00;;
9264;SDS011;4669;49.594;10.958;2023-06-22T17:52:55;16.85;;;6.18;;
9264;SDS011;4669;49.594;10.958;2023-06-22T17:57:58;17.55;;;5.95;;
9264;SDS011;4669;49.594;10.958;2023-06-22T18:03:00;11.43;;;6.28;;
9264;SDS011;4669;49.594;10.958;2023-06-22T18:08:04;14.10;;;5.68;;
9264;SDS011;4669;49.594;10.958;2023-06-22T18:13:06;15.80;;;5.70;;
9264;SDS011;4669;49.594;10.958;2023-06-22T18:18:09;14.18;;;6.35;;
9264;SDS011;4669;49.594;10.958;2023-06-22T18:23:14;22.58;;;6.57;;
9264;SDS011;4669;49.594;10.958;2023-06-22T18:28:19;23.45;;;7.60;;
9264;SDS011;4669;49.594;10.958;2023-06-22T18:33:21;16.17;;;5.45;;
9264;SDS011;4669;49.594;10.958;2023-06-22T18:38:24;20.77;;;6.82;;
9264;SDS011;4669;49.594;10.958;2023-06-22T18:43:26;7.30;;;4.32;;
9264;SDS011;4669;49.594;10.958;2023-06-22T18:48:28;13.65;;;6.78;;
9264;SDS011;4669;49.594;10.958;2023-06-22T18:53:31;17.48;;;6.50;;
9264;SDS011;4669;49.594;10.958;2023-06-22T18:58:33;12.50;;;5.18;;
9264;SDS011;4669;49.594;10.958;2023-06-22T19:03:35;13.40;;;5.57;;
9264;SDS011;4669;49.594;10.958;2023-06-22T19:14:19;13.10;;;4.35;;
9264;SDS011;4669;49.594;10.958;2023-06-22T19:19:21;17.27;;;4.72;;
9264;SDS011;4669;49.594;10.958;2023-06-22T19:24:29;16.67;;;5.95;;
9264;SDS011;4669;49.594;10.958;2023-06-22T19:29:32;18.55;;;5.65;;
9264;SDS011;4669;49.594;10.958;2023-06-22T19:34:34;27.83;;;6.22;;
9264;SDS011;4669;49.594;10.958;2023-06-22T19:39:38;19.48;;;6.00;;
9264;SDS011;4669;49.594;10.958;2023-06-22T19:44:39;13.38;;;6.68;;
9264;SDS011;4669;49.594;10.958;2023-06-22T19:49:41;13.63;;;5.40;;
9264;SDS011;4669;49.594;10.958;2023-06-22T19:54:45;14.40;;;5.22;;
9264;SDS011;4669;49.594;10.958;2023-06-22T19:59:49;18.25;;;5.38;;
9264;SDS011;4669;49.594;10.958;2023-06-22T20:04:53;15.13;;;5.72;;
9264;SDS011;4669;49.594;10.958;2023-06-22T20:10:06;15.13;;;5.72;;
9264;SDS011;4669;49.594;10.958;2023-06-22T20:15:17;16.88;;;5.82;;
9264;SDS011;4669;49.594;10.958;2023-06-22T20:20:21;13.00;;;5.55;;
9264;SDS011;4669;49.594;10.958;2023-06-22T20:25:25;16.95;;;6.60;;
9264;SDS011;4669;49.594;10.958;2023-06-22T20:30:30;14.68;;;6.30;;
9264;SDS011;4669;49.594;10.958;2023-06-22T20:35:33;17.15;;;6.45;;
9264;SDS011;4669;49.594;10.958;2023-06-22T20:40:37;14.73;;;6.10;;
9264;SDS011;4669;49.594;10.958;2023-06-22T20:45:39;14.25;;;6.32;;
9264;SDS011;4669;49.594;10.958;2023-06-22T20:50:41;19.02;;;6.35;;
9264;SDS011;4669;49.594;10.958;2023-06-22T20:55:45;18.08;;;6.50;;
9264;SDS011;4669;49.594;10.958;2023-06-22T21:00:46;16.77;;;5.78;;
9264;SDS011;4669;49.594;10.958;2023-06-22T21:05:50;19.30;;;6.40;;
9264;SDS011;4669;49.594;10.958;2023-06-22T21:10:53;13.02;;;6.10;;
9264;SDS011;4669;49.594;10.958;2023-06-22T21:15:55;14.32;;;6.82;;
9264;SDS011;4669;49.594;10.958;2023-06-22T21:20:57;17.60;;;6.50;;
9264;SDS011;4669;49.594;10.958;2023-06-22T21:26:00;20.02;;;8.02;;
9264;SDS011;4669;49.594;10.958;2023-06-22T21:31:02;16.40;;;6.78;;
9264;SDS011;4669;49.594;10.958;2023-06-22T21:36:04;17.67;;;6.65;;
9264;SDS011;4669;49.594;10.958;2023-06-22T21:41:08;15.48;;;6.63;;
9264;SDS011;4669;49.594;10.958;2023-06-22T21:46:10;14.50;;;6.50;;
9264;SDS011;4669;49.594;10.958;2023-06-22T21:51:11;14.73;;;7.18;;
9264;SDS011;4669;49.594;10.958;2023-06-22T21:56:15;15.38;;;8.10;;
